地図

経路データ

SID SEASON NUMBER BASIN SUBBASIN NAME ISO_TIME NATURE LAT LON WMO_WIND WMO_PRES WMO_AGENCY TRACK_TYPE DIST2LAND LANDFALL IFLAG USA_AGENCY USA_ATCF_ID USA_LAT USA_LON USA_RECORD USA_STATUS USA_WIND USA_PRES USA_SSHS USA_R34_NE USA_R34_SE USA_R34_SW USA_R34_NW USA_R50_NE USA_R50_SE USA_R50_SW USA_R50_NW USA_R64_NE USA_R64_SE USA_R64_SW USA_R64_NW USA_POCI USA_ROCI USA_RMW USA_EYE TOKYO_LAT TOKYO_LON TOKYO_GRADE TOKYO_WIND TOKYO_PRES TOKYO_R50_DIR TOKYO_R50_LONG TOKYO_R50_SHORT TOKYO_R30_DIR TOKYO_R30_LONG TOKYO_R30_SHORT TOKYO_LAND CMA_LAT CMA_LON CMA_CAT CMA_WIND CMA_PRES HKO_LAT HKO_LON HKO_CAT HKO_WIND HKO_PRES NEWDELHI_LAT NEWDELHI_LON NEWDELHI_GRADE NEWDELHI_WIND NEWDELHI_PRES NEWDELHI_CI NEWDELHI_DP NEWDELHI_POCI REUNION_LAT REUNION_LON REUNION_TYPE REUNION_WIND REUNION_PRES REUNION_TNUM REUNION_CI REUNION_RMW REUNION_R34_NE REUNION_R34_SE REUNION_R34_SW REUNION_R34_NW REUNION_R50_NE REUNION_R50_SE REUNION_R50_SW REUNION_R50_NW REUNION_R64_NE REUNION_R64_SE REUNION_R64_SW REUNION_R64_NW BOM_LAT BOM_LON BOM_TYPE BOM_WIND BOM_PRES BOM_TNUM BOM_CI BOM_RMW BOM_R34_NE BOM_R34_SE BOM_R34_SW BOM_R34_NW BOM_R50_NE BOM_R50_SE BOM_R50_SW BOM_R50_NW BOM_R64_NE BOM_R64_SE BOM_R64_SW BOM_R64_NW BOM_ROCI BOM_POCI BOM_EYE BOM_POS_METHOD BOM_PRES_METHOD NADI_LAT NADI_LON NADI_CAT NADI_WIND NADI_PRES WELLINGTON_LAT WELLINGTON_LON WELLINGTON_WIND WELLINGTON_PRES DS824_LAT DS824_LON DS824_STAGE DS824_WIND DS824_PRES TD9636_LAT TD9636_LON TD9636_STAGE TD9636_WIND TD9636_PRES TD9635_LAT TD9635_LON TD9635_WIND TD9635_PRES TD9635_ROCI NEUMANN_LAT NEUMANN_LON NEUMANN_CLASS NEUMANN_WIND NEUMANN_PRES MLC_LAT MLC_LON MLC_CLASS MLC_WIND MLC_PRES USA_GUST BOM_GUST BOM_GUST_PER REUNION_GUST REUNION_GUST_PER USA_SEAHGT USA_SEARAD_NE USA_SEARAD_SE USA_SEARAD_SW USA_SEARAD_NW STORM_SPEED STORM_DIR
1872122S14426 1872 15 SI MM NOT_NAMED 1872-04-30 18:00:00 NR -14.0000 66.0000 main 1115 1108 __________O___ -1 -14.0000 66.0000 7 5 158
1872122S14426 1872 15 SI MM NOT_NAMED 1872-04-30 21:00:00 NR -14.2437 66.1034 main 1109 1098 __________P___ -1 -14.2437 66.1034 7 6 157
1872122S14426 1872 15 SI MM NOT_NAMED 1872-05-01 00:00:00 NR -14.5099 66.2254 main 1098 1091 __________P___ -1 -14.5099 66.2254 7 6 155
1872122S14426 1872 15 SI MM NOT_NAMED 1872-05-01 03:00:00 NR -14.8211 66.3847 main 1096 1087 __________P___ -1 -14.8211 66.3847 7 8 152
1872122S14426 1872 15 SI MM NOT_NAMED 1872-05-01 06:00:00 NR -15.2000 66.6000 main 1090 1084 __________O___ -1 -15.2000 66.6000 7 10 150
1872122S14426 1872 15 SI MM NOT_NAMED 1872-05-01 09:00:00 NR -15.6604 66.8842 main 1090 1088 __________P___ -1 -15.6604 66.8842 7 12 149
1872122S14426 1872 15 SI MM NOT_NAMED 1872-05-01 12:00:00 NR -16.1827 67.2248 main 1093 1093 __________P___ -1 -16.1827 67.2248 7 13 147
1872122S14426 1872 15 SI MM NOT_NAMED 1872-05-01 15:00:00 NR -16.7385 67.6032 main 1108 1104 __________P___ -1 -16.7385 67.6032 7 13 146
1872122S14426 1872 15 SI MM NOT_NAMED 1872-05-01 18:00:00 NR -17.3000 68.0000 main 1124 1121 __________O___ -1 -17.3000 68.0000 7 12 147
1872122S14426 1872 15 SI MM NOT_NAMED 1872-05-01 21:00:00 NR -17.7626 68.3089 main 1138 1138 __________P___ -1 -17.7626 68.3089 7 11 147
1872122S14426 1872 15 SI MM NOT_NAMED 1872-05-02 00:00:00 NR -18.2350 68.6425 main 1157 1157 __________P___ -1 -18.2350 68.6425 7 12 145
1872122S14426 1872 15 SI MM NOT_NAMED 1872-05-02 03:00:00 NR -18.7650 69.0545 main 1195 1193 __________P___ -1 -18.7650 69.0545 7 15 142
1872122S14426 1872 15 SI MM NOT_NAMED 1872-05-02 06:00:00 NR -19.4000 69.6000 main 1237 1237 __________O___ -1 -19.4000 69.6000 7 18 140
1872122S14426 1872 15 SI MM NOT_NAMED 1872-05-02 09:00:00 NR -20.1759 70.3093 main 1303 1303 __________P___ -1 -20.1759 70.3093 7 22 138
1872122S14426 1872 15 SI MM NOT_NAMED 1872-05-02 12:00:00 NR -21.0570 71.1640 main 1396 1396 __________P___ -1 -21.0570 71.1640 7 25 137
1872122S14426 1872 15 SI MM NOT_NAMED 1872-05-02 15:00:00 NR -22.0094 72.1367 main 1494 1494 __________P___ -1 -22.0094 72.1367 7 27 136
1872122S14426 1872 15 SI MM NOT_NAMED 1872-05-02 18:00:00 NR -23.0000 73.2000 main 1618 1618 __________O___ -1 -23.0000 73.2000 7 28 135
1872122S14426 1872 15 SI MM NOT_NAMED 1872-05-02 21:00:00 NR -24.0014 74.3291 main 1747 1747 __________P___ -1 -24.0014 74.3291 7 29 134
1872122S14426 1872 15 SI MM NOT_NAMED 1872-05-03 00:00:00 NR -25.0050 75.5122 main 1888 1888 __________P___ -1 -25.0050 75.5122 7 30 133
1872122S14426 1872 15 SI MM NOT_NAMED 1872-05-03 03:00:00 NR -26.0062 76.7396 main 2031 2031 __________P___ -1 -26.0062 76.7396 7 30 132
1872122S14426 1872 15 SI MM NOT_NAMED 1872-05-03 06:00:00 NR -27.0000 78.0000 main 2185 __________O___ -1 -27.0000 78.0000 7 30 131

IBTrACS Databaseについて

本データベースは、米国NOAAが公開する1842年以降の世界の熱帯低気圧のベストトラックデータアーカイブInternational Best Track Archive for Climate Stewardship (IBTrACS)を、ウェブで閲覧しやすい形式に変換したものです。

最終更新日:2021-10-21